Alda, Nebraska
Current Conditions -  °F | °C
As of 5:53 PM on Sunday 21 Dec 2014 (Local Time) from KGRI Reporting Station
Overcast Overcast  
Wind Chill: 33°   Ceiling: 800
Heat Index: 40°   Visibility: 9mi
Dew Point: 38°   Wind: 10mph
Humidity: 93%   Direction: 170°S
Pressure: 29.61"   Gusts: NA
Location:  40.87°N, 98.47°W
Report Text: KGRI 212353Z 17009KT 9SM BKN008 OVC013 04/03 A2961 RMK AO2 CIG 006V011 SLP042 T00440033 10050 20022 58009
Loading
Personal Weather Stations






























Interactive Weather Map New forecast layout! Learn more

10-Day Weather Forecast

Advertisements
Track Severe Weather on mobile